Hopewell, New Jersey
Current Conditions -  °F | °C
As of 12:53 AM on Friday 31 Oct 2014 (Local Time) from KTTN Reporting Station
Clear Clear  
Wind Chill: 37°   Ceiling: Unl
Heat Index: 40°   Visibility: 10mi
Dew Point: 33°   Wind: 5mph
Humidity: 77%   Direction: 320°NW
Pressure: 30.02"   Gusts: NA
Location:  40.39°N, 74.76°W
Report Text: KTTN 310453Z AUTO 32004KT 10SM CLR 04/01 A3002 RMK AO2 SLP159 T00440006 401500044
Loading
Personal Weather Stations






























Interactive Weather Map
Tropical Storm Tracking
New forecast layout! Learn more

10-Day Weather Forecast

Advertisements
Track Severe Weather on mobile